sensor_id;sensor_type;location;lat;lon;timestamp;pressure;altitude;pressure_sealevel;temperature
18219;BMP180;9234;49.344;11.120;2023-09-19T00:00:47;97036.00;;;17.50
18219;BMP180;9234;49.344;11.120;2023-09-19T00:03:16;97044.00;;;17.50
18219;BMP180;9234;49.344;11.120;2023-09-19T00:05:45;97043.00;;;17.40
18219;BMP180;9234;49.344;11.120;2023-09-19T00:08:14;97049.00;;;17.40
18219;BMP180;9234;49.344;11.120;2023-09-19T00:10:43;97046.00;;;17.40
18219;BMP180;9234;49.344;11.120;2023-09-19T00:13:12;97050.00;;;17.30
18219;BMP180;9234;49.344;11.120;2023-09-19T00:15:46;97050.00;;;17.30
18219;BMP180;9234;49.344;11.120;2023-09-19T00:18:18;97041.00;;;17.30
18219;BMP180;9234;49.344;11.120;2023-09-19T00:20:48;97050.00;;;17.30
18219;BMP180;9234;49.344;11.120;2023-09-19T00:23:17;97043.00;;;17.30
18219;BMP180;9234;49.344;11.120;2023-09-19T00:25:47;97043.00;;;17.30
18219;BMP180;9234;49.344;11.120;2023-09-19T00:28:15;97046.00;;;17.30
18219;BMP180;9234;49.344;11.120;2023-09-19T00:30:46;97049.00;;;17.30
18219;BMP180;9234;49.344;11.120;2023-09-19T00:33:17;97040.00;;;17.30
18219;BMP180;9234;49.344;11.120;2023-09-19T00:35:50;97043.00;;;17.30
18219;BMP180;9234;49.344;11.120;2023-09-19T00:38:19;97057.00;;;17.30
18219;BMP180;9234;49.344;11.120;2023-09-19T00:40:52;97059.00;;;17.30
18219;BMP180;9234;49.344;11.120;2023-09-19T00:43:21;97060.00;;;17.20
18219;BMP180;9234;49.344;11.120;2023-09-19T00:45:56;97060.00;;;17.20
18219;BMP180;9234;49.344;11.120;2023-09-19T00:48:26;97073.00;;;17.10
18219;BMP180;9234;49.344;11.120;2023-09-19T00:50:59;97072.00;;;17.10
18219;BMP180;9234;49.344;11.120;2023-09-19T00:53:32;97086.00;;;17.00
18219;BMP180;9234;49.344;11.120;2023-09-19T00:56:03;97092.00;;;17.00
18219;BMP180;9234;49.344;11.120;2023-09-19T00:58:32;97090.00;;;16.90
18219;BMP180;9234;49.344;11.120;2023-09-19T01:01:04;97081.00;;;16.90
18219;BMP180;9234;49.344;11.120;2023-09-19T01:03:36;97082.00;;;16.80
18219;BMP180;9234;49.344;11.120;2023-09-19T01:06:06;97090.00;;;16.80
18219;BMP180;9234;49.344;11.120;2023-09-19T01:08:35;97098.00;;;16.70
18219;BMP180;9234;49.344;11.120;2023-09-19T01:11:14;97085.00;;;16.70
18219;BMP180;9234;49.344;11.120;2023-09-19T01:13:56;97086.00;;;16.70
18219;BMP180;9234;49.344;11.120;2023-09-19T01:16:48;97083.00;;;16.70
18219;BMP180;9234;49.344;11.120;2023-09-19T01:20:15;97083.00;;;16.70
18219;BMP180;9234;49.344;11.120;2023-09-19T01:22:57;97092.00;;;16.70
18219;BMP180;9234;49.344;11.120;2023-09-19T01:26:10;97097.00;;;16.70
18219;BMP180;9234;49.344;11.120;2023-09-19T01:29:08;97079.00;;;16.80
18219;BMP180;9234;49.344;11.120;2023-09-19T01:31:44;97096.00;;;16.80
18219;BMP180;9234;49.344;11.120;2023-09-19T01:34:13;97091.00;;;16.90
18219;BMP180;9234;49.344;11.120;2023-09-19T01:36:41;97084.00;;;16.90
18219;BMP180;9234;49.344;11.120;2023-09-19T01:39:14;97080.00;;;16.90
18219;BMP180;9234;49.344;11.120;2023-09-19T01:41:55;97085.00;;;16.90
18219;BMP180;9234;49.344;11.120;2023-09-19T01:44:44;97081.00;;;16.90
18219;BMP180;9234;49.344;11.120;2023-09-19T01:47:32;97078.00;;;16.90
18219;BMP180;9234;49.344;11.120;2023-09-19T01:50:11;97081.00;;;16.90
18219;BMP180;9234;49.344;11.120;2023-09-19T01:52:56;97086.00;;;16.90
18219;BMP180;9234;49.344;11.120;2023-09-19T01:55:28;97088.00;;;16.90
18219;BMP180;9234;49.344;11.120;2023-09-19T01:58:05;97083.00;;;16.90
18219;BMP180;9234;49.344;11.120;2023-09-19T02:00:37;97091.00;;;16.90
18219;BMP180;9234;49.344;11.120;2023-09-19T02:03:11;97096.00;;;16.90
18219;BMP180;9234;49.344;11.120;2023-09-19T02:05:48;97091.00;;;17.00
18219;BMP180;9234;49.344;11.120;2023-09-19T02:08:18;97094.00;;;17.00
18219;BMP180;9234;49.344;11.120;2023-09-19T02:10:47;97088.00;;;17.00
18219;BMP180;9234;49.344;11.120;2023-09-19T02:13:16;97088.00;;;17.00
18219;BMP180;9234;49.344;11.120;2023-09-19T02:15:46;97099.00;;;17.10
18219;BMP180;9234;49.344;11.120;2023-09-19T02:18:16;97100.00;;;17.10
18219;BMP180;9234;49.344;11.120;2023-09-19T02:20:45;97106.00;;;17.10
18219;BMP180;9234;49.344;11.120;2023-09-19T02:23:14;97107.00;;;17.20
18219;BMP180;9234;49.344;11.120;2023-09-19T02:25:52;97105.00;;;17.20
18219;BMP180;9234;49.344;11.120;2023-09-19T02:28:21;97112.00;;;17.20
18219;BMP180;9234;49.344;11.120;2023-09-19T02:30:50;97113.00;;;17.20
18219;BMP180;9234;49.344;11.120;2023-09-19T02:33:22;97109.00;;;17.20
18219;BMP180;9234;49.344;11.120;2023-09-19T02:35:55;97106.00;;;17.20
18219;BMP180;9234;49.344;11.120;2023-09-19T02:38:25;97115.00;;;17.20
18219;BMP180;9234;49.344;11.120;2023-09-19T02:40:53;97122.00;;;17.20
18219;BMP180;9234;49.344;11.120;2023-09-19T02:43:23;97131.00;;;17.30
18219;BMP180;9234;49.344;11.120;2023-09-19T02:45:51;97124.00;;;17.30
18219;BMP180;9234;49.344;11.120;2023-09-19T02:48:25;97126.00;;;17.30
18219;BMP180;9234;49.344;11.120;2023-09-19T02:50:54;97143.00;;;17.30
18219;BMP180;9234;49.344;11.120;2023-09-19T02:53:22;97147.00;;;17.30
18219;BMP180;9234;49.344;11.120;2023-09-19T02:55:51;97151.00;;;17.30
18219;BMP180;9234;49.344;11.120;2023-09-19T02:58:21;97160.00;;;17.40
18219;BMP180;9234;49.344;11.120;2023-09-19T03:00:52;97149.00;;;17.40
18219;BMP180;9234;49.344;11.120;2023-09-19T03:03:25;97148.00;;;17.40
18219;BMP180;9234;49.344;11.120;2023-09-19T03:05:56;97154.00;;;17.40
18219;BMP180;9234;49.344;11.120;2023-09-19T03:08:26;97165.00;;;17.40
18219;BMP180;9234;49.344;11.120;2023-09-19T03:10:54;97161.00;;;17.40
18219;BMP180;9234;49.344;11.120;2023-09-19T03:13:22;97161.00;;;17.40
18219;BMP180;9234;49.344;11.120;2023-09-19T03:15:54;97154.00;;;17.40
18219;BMP180;9234;49.344;11.120;2023-09-19T03:18:26;97162.00;;;17.40
18219;BMP180;9234;49.344;11.120;2023-09-19T03:20:56;97148.00;;;17.40
18219;BMP180;9234;49.344;11.120;2023-09-19T03:23:27;97157.00;;;17.40
18219;BMP180;9234;49.344;11.120;2023-09-19T03:25:56;97151.00;;;17.40
18219;BMP180;9234;49.344;11.120;2023-09-19T03:28:26;97162.00;;;17.40
18219;BMP180;9234;49.344;11.120;2023-09-19T03:30:59;97169.00;;;17.30
18219;BMP180;9234;49.344;11.120;2023-09-19T03:33:32;97161.00;;;17.30
18219;BMP180;9234;49.344;11.120;2023-09-19T03:36:03;97168.00;;;17.30
18219;BMP180;9234;49.344;11.120;2023-09-19T03:38:33;97155.00;;;17.30
18219;BMP180;9234;49.344;11.120;2023-09-19T03:41:02;97159.00;;;17.30
18219;BMP180;9234;49.344;11.120;2023-09-19T03:43:33;97172.00;;;17.30
18219;BMP180;9234;49.344;11.120;2023-09-19T03:46:02;97162.00;;;17.30
18219;BMP180;9234;49.344;11.120;2023-09-19T03:48:34;97166.00;;;17.30
18219;BMP180;9234;49.344;11.120;2023-09-19T03:51:03;97175.00;;;17.30
18219;BMP180;9234;49.344;11.120;2023-09-19T03:53:32;97163.00;;;17.30
18219;BMP180;9234;49.344;11.120;2023-09-19T03:56:00;97176.00;;;17.30
18219;BMP180;9234;49.344;11.120;2023-09-19T03:58:32;97155.00;;;17.30
18219;BMP180;9234;49.344;11.120;2023-09-19T04:01:05;97161.00;;;17.30
18219;BMP180;9234;49.344;11.120;2023-09-19T04:03:36;97152.00;;;17.20
18219;BMP180;9234;49.344;11.120;2023-09-19T04:06:14;97158.00;;;17.10
18219;BMP180;9234;49.344;11.120;2023-09-19T04:08:43;97165.00;;;17.10
18219;BMP180;9234;49.344;11.120;2023-09-19T04:11:13;97165.00;;;17.00
18219;BMP180;9234;49.344;11.120;2023-09-19T04:13:42;97163.00;;;17.00
18219;BMP180;9234;49.344;11.120;2023-09-19T04:16:10;97173.00;;;16.90
18219;BMP180;9234;49.344;11.120;2023-09-19T04:18:40;97185.00;;;16.90
18219;BMP180;9234;49.344;11.120;2023-09-19T04:21:09;97183.00;;;16.80
18219;BMP180;9234;49.344;11.120;2023-09-19T04:23:37;97180.00;;;16.80
18219;BMP180;9234;49.344;11.120;2023-09-19T04:26:06;97182.00;;;16.80
18219;BMP180;9234;49.344;11.120;2023-09-19T04:28:35;97187.00;;;16.70
18219;BMP180;9234;49.344;11.120;2023-09-19T04:31:06;97183.00;;;16.70
18219;BMP180;9234;49.344;11.120;2023-09-19T04:33:35;97173.00;;;16.60
18219;BMP180;9234;49.344;11.120;2023-09-19T04:36:05;97187.00;;;16.60
18219;BMP180;9234;49.344;11.120;2023-09-19T04:38:54;97186.00;;;16.60
18219;BMP180;9234;49.344;11.120;2023-09-19T04:41:23;97198.00;;;16.50
18219;BMP180;9234;49.344;11.120;2023-09-19T04:43:51;97200.00;;;16.50
18219;BMP180;9234;49.344;11.120;2023-09-19T04:46:19;97208.00;;;16.50
18219;BMP180;9234;49.344;11.120;2023-09-19T04:48:48;97218.00;;;16.40
18219;BMP180;9234;49.344;11.120;2023-09-19T04:51:18;97212.00;;;16.30
18219;BMP180;9234;49.344;11.120;2023-09-19T04:53:47;97214.00;;;16.30
18219;BMP180;9234;49.344;11.120;2023-09-19T04:56:16;97219.00;;;16.20
18219;BMP180;9234;49.344;11.120;2023-09-19T04:58:44;97234.00;;;16.20
18219;BMP180;9234;49.344;11.120;2023-09-19T05:01:13;97233.00;;;16.20
18219;BMP180;9234;49.344;11.120;2023-09-19T05:03:43;97224.00;;;16.30
18219;BMP180;9234;49.344;11.120;2023-09-19T05:06:17;97242.00;;;16.30
18219;BMP180;9234;49.344;11.120;2023-09-19T05:08:47;97231.00;;;16.40
18219;BMP180;9234;49.344;11.120;2023-09-19T05:11:18;97227.00;;;16.50
18219;BMP180;9234;49.344;11.120;2023-09-19T05:13:46;97227.00;;;16.50
18219;BMP180;9234;49.344;11.120;2023-09-19T05:16:14;97241.00;;;16.60
18219;BMP180;9234;49.344;11.120;2023-09-19T05:18:43;97239.00;;;16.70
18219;BMP180;9234;49.344;11.120;2023-09-19T05:21:12;97234.00;;;16.70
18219;BMP180;9234;49.344;11.120;2023-09-19T05:23:42;97231.00;;;16.80
18219;BMP180;9234;49.344;11.120;2023-09-19T05:26:12;97237.00;;;16.80
18219;BMP180;9234;49.344;11.120;2023-09-19T05:28:43;97241.00;;;16.80
18219;BMP180;9234;49.344;11.120;2023-09-19T05:31:11;97228.00;;;16.80
18219;BMP180;9234;49.344;11.120;2023-09-19T05:33:39;97232.00;;;16.80
18219;BMP180;9234;49.344;11.120;2023-09-19T05:36:08;97248.00;;;16.80
18219;BMP180;9234;49.344;11.120;2023-09-19T05:38:38;97259.00;;;16.80
18219;BMP180;9234;49.344;11.120;2023-09-19T05:41:10;97263.00;;;16.80
18219;BMP180;9234;49.344;11.120;2023-09-19T05:43:40;97247.00;;;16.90
18219;BMP180;9234;49.344;11.120;2023-09-19T05:46:09;97262.00;;;16.90
18219;BMP180;9234;49.344;11.120;2023-09-19T05:48:38;97261.00;;;17.00
18219;BMP180;9234;49.344;11.120;2023-09-19T05:51:08;97273.00;;;17.10
18219;BMP180;9234;49.344;11.120;2023-09-19T05:53:36;97263.00;;;17.10
18219;BMP180;9234;49.344;11.120;2023-09-19T05:56:05;97265.00;;;17.20
18219;BMP180;9234;49.344;11.120;2023-09-19T05:58:35;97272.00;;;17.20
18219;BMP180;9234;49.344;11.120;2023-09-19T06:01:03;97258.00;;;17.20
18219;BMP180;9234;49.344;11.120;2023-09-19T06:03:31;97260.00;;;17.30
18219;BMP180;9234;49.344;11.120;2023-09-19T06:05:59;97294.00;;;17.30
18219;BMP180;9234;49.344;11.120;2023-09-19T06:08:28;97281.00;;;17.40
18219;BMP180;9234;49.344;11.120;2023-09-19T06:10:57;97293.00;;;17.40
18219;BMP180;9234;49.344;11.120;2023-09-19T06:13:28;97290.00;;;17.40
18219;BMP180;9234;49.344;11.120;2023-09-19T06:15:58;97299.00;;;17.50
18219;BMP180;9234;49.344;11.120;2023-09-19T06:18:27;97290.00;;;17.50
18219;BMP180;9234;49.344;11.120;2023-09-19T06:20:57;97296.00;;;17.60
18219;BMP180;9234;49.344;11.120;2023-09-19T06:23:25;97298.00;;;17.70
18219;BMP180;9234;49.344;11.120;2023-09-19T06:25:56;97302.00;;;17.70
18219;BMP180;9234;49.344;11.120;2023-09-19T06:28:24;97306.00;;;17.70
18219;BMP180;9234;49.344;11.120;2023-09-19T06:30:54;97298.00;;;17.80
18219;BMP180;9234;49.344;11.120;2023-09-19T06:33:25;97307.00;;;17.90
18219;BMP180;9234;49.344;11.120;2023-09-19T06:35:53;97314.00;;;17.90
18219;BMP180;9234;49.344;11.120;2023-09-19T06:38:26;97317.00;;;17.90
18219;BMP180;9234;49.344;11.120;2023-09-19T06:40:55;97311.00;;;18.00
18219;BMP180;9234;49.344;11.120;2023-09-19T06:43:24;97312.00;;;17.90
18219;BMP180;9234;49.344;11.120;2023-09-19T06:45:53;97321.00;;;17.90
18219;BMP180;9234;49.344;11.120;2023-09-19T06:48:24;97316.00;;;18.00
18219;BMP180;9234;49.344;11.120;2023-09-19T06:50:53;97319.00;;;18.10
18219;BMP180;9234;49.344;11.120;2023-09-19T06:53:22;97334.00;;;18.10
18219;BMP180;9234;49.344;11.120;2023-09-19T06:55:51;97321.00;;;18.20
18219;BMP180;9234;49.344;11.120;2023-09-19T06:58:20;97327.00;;;18.30
18219;BMP180;9234;49.344;11.120;2023-09-19T07:00:48;97340.00;;;18.40
18219;BMP180;9234;49.344;11.120;2023-09-19T07:03:17;97331.00;;;18.40
18219;BMP180;9234;49.344;11.120;2023-09-19T07:05:49;97336.00;;;18.60
18219;BMP180;9234;49.344;11.120;2023-09-19T07:08:17;97335.00;;;18.70
18219;BMP180;9234;49.344;11.120;2023-09-19T07:10:45;97326.00;;;18.80
18219;BMP180;9234;49.344;11.120;2023-09-19T07:13:16;97329.00;;;18.70
18219;BMP180;9234;49.344;11.120;2023-09-19T07:15:45;97338.00;;;18.70
18219;BMP180;9234;49.344;11.120;2023-09-19T07:18:18;97328.00;;;18.60
18219;BMP180;9234;49.344;11.120;2023-09-19T07:20:48;97340.00;;;18.70
18219;BMP180;9234;49.344;11.120;2023-09-19T07:23:17;97349.00;;;18.70
18219;BMP180;9234;49.344;11.120;2023-09-19T07:25:47;97337.00;;;18.80
18219;BMP180;9234;49.344;11.120;2023-09-19T07:28:17;97335.00;;;18.80
18219;BMP180;9234;49.344;11.120;2023-09-19T07:30:45;97346.00;;;19.00
18219;BMP180;9234;49.344;11.120;2023-09-19T07:33:13;97340.00;;;19.10
18219;BMP180;9234;49.344;11.120;2023-09-19T07:35:45;97356.00;;;19.20
18219;BMP180;9234;49.344;11.120;2023-09-19T07:38:15;97350.00;;;19.30
18219;BMP180;9234;49.344;11.120;2023-09-19T07:40:44;97344.00;;;19.40
18219;BMP180;9234;49.344;11.120;2023-09-19T07:43:13;97353.00;;;19.50
18219;BMP180;9234;49.344;11.120;2023-09-19T07:45:41;97357.00;;;19.50
18219;BMP180;9234;49.344;11.120;2023-09-19T07:48:10;97354.00;;;19.60
18219;BMP180;9234;49.344;11.120;2023-09-19T07:50:41;97361.00;;;19.60
18219;BMP180;9234;49.344;11.120;2023-09-19T07:53:11;97360.00;;;19.70
18219;BMP180;9234;49.344;11.120;2023-09-19T07:55:42;97355.00;;;19.70
18219;BMP180;9234;49.344;11.120;2023-09-19T07:58:10;97370.00;;;19.80
18219;BMP180;9234;49.344;11.120;2023-09-19T08:00:40;97364.00;;;19.80
18219;BMP180;9234;49.344;11.120;2023-09-19T08:03:08;97376.00;;;19.80
18219;BMP180;9234;49.344;11.120;2023-09-19T08:05:44;97364.00;;;19.80
18219;BMP180;9234;49.344;11.120;2023-09-19T08:08:13;97361.00;;;19.80
18219;BMP180;9234;49.344;11.120;2023-09-19T08:10:44;97363.00;;;19.90
18219;BMP180;9234;49.344;11.120;2023-09-19T08:13:16;97372.00;;;20.00
18219;BMP180;9234;49.344;11.120;2023-09-19T08:15:45;97377.00;;;20.00
18219;BMP180;9234;49.344;11.120;2023-09-19T08:18:15;97382.00;;;20.10
18219;BMP180;9234;49.344;11.120;2023-09-19T08:20:49;97388.00;;;20.20
18219;BMP180;9234;49.344;11.120;2023-09-19T08:23:17;97392.00;;;20.20
18219;BMP180;9234;49.344;11.120;2023-09-19T08:25:49;97390.00;;;20.10
18219;BMP180;9234;49.344;11.120;2023-09-19T08:28:17;97385.00;;;20.20
18219;BMP180;9234;49.344;11.120;2023-09-19T08:30:51;97391.00;;;20.20
18219;BMP180;9234;49.344;11.120;2023-09-19T08:33:20;97392.00;;;20.30
18219;BMP180;9234;49.344;11.120;2023-09-19T08:35:48;97389.00;;;20.40
18219;BMP180;9234;49.344;11.120;2023-09-19T08:38:16;97401.00;;;20.60
18219;BMP180;9234;49.344;11.120;2023-09-19T08:40:44;97389.00;;;20.80
18219;BMP180;9234;49.344;11.120;2023-09-19T08:43:14;97406.00;;;21.00
18219;BMP180;9234;49.344;11.120;2023-09-19T08:45:42;97396.00;;;21.20
18219;BMP180;9234;49.344;11.120;2023-09-19T08:48:22;97400.00;;;21.40
18219;BMP180;9234;49.344;11.120;2023-09-19T08:50:56;97405.00;;;21.50
18219;BMP180;9234;49.344;11.120;2023-09-19T08:53:31;97406.00;;;21.50
18219;BMP180;9234;49.344;11.120;2023-09-19T08:56:03;97405.00;;;21.40
18219;BMP180;9234;49.344;11.120;2023-09-19T08:58:48;97413.00;;;21.50
18219;BMP180;9234;49.344;11.120;2023-09-19T09:01:20;97407.00;;;21.50
18219;BMP180;9234;49.344;11.120;2023-09-19T09:03:53;97409.00;;;21.60
18219;BMP180;9234;49.344;11.120;2023-09-19T09:06:23;97425.00;;;21.70
18219;BMP180;9234;49.344;11.120;2023-09-19T09:08:52;97435.00;;;21.90
18219;BMP180;9234;49.344;11.120;2023-09-19T09:11:22;97423.00;;;21.90
18219;BMP180;9234;49.344;11.120;2023-09-19T09:13:53;97436.00;;;21.90
18219;BMP180;9234;49.344;11.120;2023-09-19T09:16:21;97429.00;;;21.90
18219;BMP180;9234;49.344;11.120;2023-09-19T09:18:53;97436.00;;;22.00
18219;BMP180;9234;49.344;11.120;2023-09-19T09:21:25;97433.00;;;21.90
18219;BMP180;9234;49.344;11.120;2023-09-19T09:23:54;97430.00;;;21.60
18219;BMP180;9234;49.344;11.120;2023-09-19T09:26:41;97431.00;;;21.50
18219;BMP180;9234;49.344;11.120;2023-09-19T09:29:12;97431.00;;;21.50
18219;BMP180;9234;49.344;11.120;2023-09-19T09:31:46;97440.00;;;21.50
18219;BMP180;9234;49.344;11.120;2023-09-19T09:34:16;97444.00;;;21.50
18219;BMP180;9234;49.344;11.120;2023-09-19T09:36:48;97444.00;;;21.50
18219;BMP180;9234;49.344;11.120;2023-09-19T09:39:30;97427.00;;;21.50
18219;BMP180;9234;49.344;11.120;2023-09-19T09:41:59;97452.00;;;21.60
18219;BMP180;9234;49.344;11.120;2023-09-19T09:44:29;97441.00;;;21.60
18219;BMP180;9234;49.344;11.120;2023-09-19T09:46:59;97447.00;;;21.70
18219;BMP180;9234;49.344;11.120;2023-09-19T09:49:48;97439.00;;;21.80
18219;BMP180;9234;49.344;11.120;2023-09-19T09:52:45;97453.00;;;21.90
18219;BMP180;9234;49.344;11.120;2023-09-19T09:55:14;97446.00;;;22.10
18219;BMP180;9234;49.344;11.120;2023-09-19T09:57:42;97445.00;;;22.10
18219;BMP180;9234;49.344;11.120;2023-09-19T10:00:13;97442.00;;;22.30
18219;BMP180;9234;49.344;11.120;2023-09-19T10:02:47;97440.00;;;22.40
18219;BMP180;9234;49.344;11.120;2023-09-19T10:05:17;97446.00;;;22.50
18219;BMP180;9234;49.344;11.120;2023-09-19T10:07:55;97444.00;;;22.60
18219;BMP180;9234;49.344;11.120;2023-09-19T10:10:32;97442.00;;;22.60
18219;BMP180;9234;49.344;11.120;2023-09-19T10:13:21;97436.00;;;22.70
18219;BMP180;9234;49.344;11.120;2023-09-19T10:15:53;97452.00;;;22.80
18219;BMP180;9234;49.344;11.120;2023-09-19T10:18:24;97437.00;;;22.70
18219;BMP180;9234;49.344;11.120;2023-09-19T10:20:54;97437.00;;;22.50
18219;BMP180;9234;49.344;11.120;2023-09-19T10:23:24;97434.00;;;22.50
18219;BMP180;9234;49.344;11.120;2023-09-19T10:25:57;97425.00;;;22.60
18219;BMP180;9234;49.344;11.120;2023-09-19T10:28:29;97434.00;;;22.80
18219;BMP180;9234;49.344;11.120;2023-09-19T10:31:01;97431.00;;;23.10
18219;BMP180;9234;49.344;11.120;2023-09-19T10:33:36;97421.00;;;23.20
18219;BMP180;9234;49.344;11.120;2023-09-19T10:36:05;97443.00;;;23.30
18219;BMP180;9234;49.344;11.120;2023-09-19T10:38:37;97437.00;;;23.50
18219;BMP180;9234;49.344;11.120;2023-09-19T10:41:10;97438.00;;;23.70
18219;BMP180;9234;49.344;11.120;2023-09-19T10:43:45;97435.00;;;24.00
18219;BMP180;9234;49.344;11.120;2023-09-19T10:46:17;97438.00;;;24.00
18219;BMP180;9234;49.344;11.120;2023-09-19T10:48:46;97449.00;;;24.00
18219;BMP180;9234;49.344;11.120;2023-09-19T10:51:21;97440.00;;;23.90
18219;BMP180;9234;49.344;11.120;2023-09-19T10:54:05;97444.00;;;24.00
18219;BMP180;9234;49.344;11.120;2023-09-19T10:56:43;97450.00;;;24.20
18219;BMP180;9234;49.344;11.120;2023-09-19T10:59:16;97459.00;;;24.30
18219;BMP180;9234;49.344;11.120;2023-09-19T11:01:48;97448.00;;;24.60
18219;BMP180;9234;49.344;11.120;2023-09-19T11:04:24;97446.00;;;24.90
18219;BMP180;9234;49.344;11.120;2023-09-19T11:07:05;97434.00;;;24.90
18219;BMP180;9234;49.344;11.120;2023-09-19T11:09:48;97454.00;;;24.70
18219;BMP180;9234;49.344;11.120;2023-09-19T11:12:48;97441.00;;;24.60
18219;BMP180;9234;49.344;11.120;2023-09-19T11:16:06;97444.00;;;24.60
18219;BMP180;9234;49.344;11.120;2023-09-19T11:18:54;97440.00;;;24.40
18219;BMP180;9234;49.344;11.120;2023-09-19T11:21:53;97455.00;;;24.70
18219;BMP180;9234;49.344;11.120;2023-09-19T11:24:32;97441.00;;;24.90
18219;BMP180;9234;49.344;11.120;2023-09-19T11:27:13;97439.00;;;24.90
18219;BMP180;9234;49.344;11.120;2023-09-19T11:29:44;97451.00;;;25.00
18219;BMP180;9234;49.344;11.120;2023-09-19T11:32:13;97443.00;;;25.00
18219;BMP180;9234;49.344;11.120;2023-09-19T11:34:48;97433.00;;;24.80
18219;BMP180;9234;49.344;11.120;2023-09-19T11:38:05;97430.00;;;24.80
18219;BMP180;9234;49.344;11.120;2023-09-19T11:40:38;97442.00;;;25.00
18219;BMP180;9234;49.344;11.120;2023-09-19T11:43:28;97443.00;;;25.20
18219;BMP180;9234;49.344;11.120;2023-09-19T11:46:05;97438.00;;;25.50
18219;BMP180;9234;49.344;11.120;2023-09-19T11:48:35;97442.00;;;25.40
18219;BMP180;9234;49.344;11.120;2023-09-19T11:51:18;97437.00;;;25.40
18219;BMP180;9234;49.344;11.120;2023-09-19T11:53:57;97430.00;;;25.00
18219;BMP180;9234;49.344;11.120;2023-09-19T11:56:27;97432.00;;;24.80
18219;BMP180;9234;49.344;11.120;2023-09-19T11:58:58;97422.00;;;24.60
18219;BMP180;9234;49.344;11.120;2023-09-19T12:01:30;97440.00;;;24.30
18219;BMP180;9234;49.344;11.120;2023-09-19T12:04:01;97426.00;;;24.30
18219;BMP180;9234;49.344;11.120;2023-09-19T12:06:34;97425.00;;;24.60
18219;BMP180;9234;49.344;11.120;2023-09-19T12:09:03;97433.00;;;24.90
18219;BMP180;9234;49.344;11.120;2023-09-19T12:11:42;97433.00;;;25.10
18219;BMP180;9234;49.344;11.120;2023-09-19T12:14:11;97425.00;;;25.30
18219;BMP180;9234;49.344;11.120;2023-09-19T12:16:53;97414.00;;;25.40
18219;BMP180;9234;49.344;11.120;2023-09-19T12:19:23;97424.00;;;25.20
18219;BMP180;9234;49.344;11.120;2023-09-19T12:21:57;97409.00;;;24.80
18219;BMP180;9234;49.344;11.120;2023-09-19T12:24:27;97429.00;;;24.70
18219;BMP180;9234;49.344;11.120;2023-09-19T12:27:02;97411.00;;;25.10
18219;BMP180;9234;49.344;11.120;2023-09-19T12:29:42;97415.00;;;25.10
18219;BMP180;9234;49.344;11.120;2023-09-19T12:32:11;97420.00;;;25.10
18219;BMP180;9234;49.344;11.120;2023-09-19T12:34:41;97411.00;;;25.40
18219;BMP180;9234;49.344;11.120;2023-09-19T12:37:13;97407.00;;;26.30
18219;BMP180;9234;49.344;11.120;2023-09-19T12:39:49;97414.00;;;26.80
18219;BMP180;9234;49.344;11.120;2023-09-19T12:42:21;97413.00;;;27.20
18219;BMP180;9234;49.344;11.120;2023-09-19T12:44:51;97428.00;;;27.50
18219;BMP180;9234;49.344;11.120;2023-09-19T12:47:23;97418.00;;;27.50
18219;BMP180;9234;49.344;11.120;2023-09-19T12:50:12;97417.00;;;26.90
18219;BMP180;9234;49.344;11.120;2023-09-19T12:52:46;97408.00;;;26.50
18219;BMP180;9234;49.344;11.120;2023-09-19T12:55:24;97418.00;;;26.40
18219;BMP180;9234;49.344;11.120;2023-09-19T12:58:11;97412.00;;;26.40
18219;BMP180;9234;49.344;11.120;2023-09-19T13:00:41;97413.00;;;26.00
18219;BMP180;9234;49.344;11.120;2023-09-19T13:03:17;97409.00;;;26.20
18219;BMP180;9234;49.344;11.120;2023-09-19T13:05:51;97399.00;;;26.40
18219;BMP180;9234;49.344;11.120;2023-09-19T13:08:25;97409.00;;;26.60
18219;BMP180;9234;49.344;11.120;2023-09-19T13:11:06;97406.00;;;26.60
18219;BMP180;9234;49.344;11.120;2023-09-19T13:13:39;97408.00;;;27.00
18219;BMP180;9234;49.344;11.120;2023-09-19T13:16:09;97403.00;;;27.40
18219;BMP180;9234;49.344;11.120;2023-09-19T13:18:46;97405.00;;;27.90
18219;BMP180;9234;49.344;11.120;2023-09-19T13:21:27;97407.00;;;28.60
18219;BMP180;9234;49.344;11.120;2023-09-19T13:24:21;97398.00;;;29.10
18219;BMP180;9234;49.344;11.120;2023-09-19T13:26:50;97409.00;;;29.70
18219;BMP180;9234;49.344;11.120;2023-09-19T13:29:18;97408.00;;;30.00
18219;BMP180;9234;49.344;11.120;2023-09-19T13:31:47;97401.00;;;30.30
18219;BMP180;9234;49.344;11.120;2023-09-19T13:34:15;97395.00;;;30.40
18219;BMP180;9234;49.344;11.120;2023-09-19T13:36:45;97402.00;;;30.80
18219;BMP180;9234;49.344;11.120;2023-09-19T13:39:16;97399.00;;;31.00
18219;BMP180;9234;49.344;11.120;2023-09-19T13:41:45;97392.00;;;30.40
18219;BMP180;9234;49.344;11.120;2023-09-19T13:44:15;97397.00;;;30.50
18219;BMP180;9234;49.344;11.120;2023-09-19T13:46:44;97398.00;;;30.30
18219;BMP180;9234;49.344;11.120;2023-09-19T13:49:14;97397.00;;;29.50
18219;BMP180;9234;49.344;11.120;2023-09-19T13:51:42;97403.00;;;29.10
18219;BMP180;9234;49.344;11.120;2023-09-19T13:54:12;97390.00;;;28.80
18219;BMP180;9234;49.344;11.120;2023-09-19T13:56:43;97384.00;;;29.30
18219;BMP180;9234;49.344;11.120;2023-09-19T13:59:11;97401.00;;;29.90
18219;BMP180;9234;49.344;11.120;2023-09-19T14:01:39;97392.00;;;30.30
18219;BMP180;9234;49.344;11.120;2023-09-19T14:04:08;97391.00;;;30.80
18219;BMP180;9234;49.344;11.120;2023-09-19T14:06:42;97387.00;;;31.50
18219;BMP180;9234;49.344;11.120;2023-09-19T14:09:10;97392.00;;;31.80
18219;BMP180;9234;49.344;11.120;2023-09-19T14:11:41;97397.00;;;32.40
18219;BMP180;9234;49.344;11.120;2023-09-19T14:14:13;97398.00;;;32.80
18219;BMP180;9234;49.344;11.120;2023-09-19T14:16:42;97398.00;;;33.40
18219;BMP180;9234;49.344;11.120;2023-09-19T14:19:10;97384.00;;;34.00
18219;BMP180;9234;49.344;11.120;2023-09-19T14:21:38;97383.00;;;34.30
18219;BMP180;9234;49.344;11.120;2023-09-19T14:24:07;97383.00;;;34.70
18219;BMP180;9234;49.344;11.120;2023-09-19T14:26:36;97389.00;;;34.80
18219;BMP180;9234;49.344;11.120;2023-09-19T14:29:06;97388.00;;;35.00
18219;BMP180;9234;49.344;11.120;2023-09-19T14:31:38;97378.00;;;34.90
18219;BMP180;9234;49.344;11.120;2023-09-19T14:34:07;97386.00;;;34.70
18219;BMP180;9234;49.344;11.120;2023-09-19T14:36:37;97377.00;;;34.50
18219;BMP180;9234;49.344;11.120;2023-09-19T14:39:06;97379.00;;;34.70